createdAt,value
2023-04-09T00:10:01.590Z,23.75
2023-04-09T00:20:06.143Z,23.00
2023-04-09T00:30:09.426Z,25.73
2023-04-09T00:40:12.958Z,24.85
2023-04-09T00:50:14.919Z,29.27
2023-04-09T01:00:18.328Z,27.77
2023-04-09T01:10:28.311Z,23.30
2023-04-09T01:20:38.908Z,31.20
2023-04-09T01:30:45.253Z,25.67
2023-04-09T01:40:48.183Z,23.40
2023-04-09T01:50:51.955Z,22.73
2023-04-09T02:00:59.968Z,26.77
2023-04-09T02:11:05.341Z,28.33
2023-04-09T02:21:07.403Z,32.03
2023-04-09T02:31:10.745Z,28.08
2023-04-09T02:41:12.755Z,25.27
2023-04-09T02:51:16.081Z,28.80
2023-04-09T03:01:18.020Z,29.77
2023-04-09T03:11:21.456Z,32.78
2023-04-09T03:21:23.402Z,26.35
2023-04-09T03:31:26.724Z,31.92
2023-04-09T03:41:28.699Z,26.25
2023-04-09T03:51:31.998Z,30.33
2023-04-09T04:01:34.036Z,36.03
2023-04-09T04:11:37.462Z,34.60
2023-04-09T04:21:39.457Z,39.92
2023-04-09T04:31:42.861Z,32.42
2023-04-09T04:41:44.816Z,34.10
2023-04-09T04:51:48.271Z,56.33
2023-04-09T05:01:50.227Z,35.85
2023-04-09T05:11:53.596Z,34.80
2023-04-09T05:21:55.553Z,34.97
2023-04-09T05:31:59.279Z,30.08
2023-04-09T05:42:01.461Z,23.90
2023-04-09T05:52:05.078Z,23.15
2023-04-09T06:02:07.148Z,27.27
2023-04-09T06:12:10.617Z,25.17
2023-04-09T06:22:12.573Z,29.50
2023-04-09T06:32:15.868Z,44.60
2023-04-09T06:42:17.883Z,45.17
2023-04-09T06:52:21.291Z,46.88
2023-04-09T07:02:23.452Z,27.55
2023-04-09T07:12:30.989Z,30.52
2023-04-09T07:22:32.999Z,26.55
2023-04-09T07:32:36.689Z,25.45
2023-04-09T07:42:38.976Z,27.20
2023-04-09T07:52:42.236Z,28.77
2023-04-09T08:02:44.609Z,28.33
2023-04-09T08:12:49.382Z,30.48
2023-04-09T08:22:51.333Z,31.40
2023-04-09T08:32:54.772Z,32.50
2023-04-09T08:42:57.114Z,39.08
2023-04-09T08:53:03.504Z,37.13
2023-04-09T09:03:07.280Z,33.72
2023-04-09T09:13:22.101Z,31.67
2023-04-09T09:23:35.424Z,28.50
2023-04-09T09:33:39.143Z,29.92
2023-04-09T09:43:41.324Z,26.73
2023-04-09T09:53:47.145Z,26.23
2023-04-09T10:03:51.724Z,21.67
2023-04-09T10:13:57.636Z,20.13
2023-04-09T10:23:59.958Z,20.33
2023-04-09T10:34:05.230Z,19.95
2023-04-09T10:44:19.365Z,19.05
2023-04-09T10:54:43.187Z,19.75
2023-04-09T11:04:55.765Z,20.30
2023-04-09T11:14:59.164Z,19.27
2023-04-09T11:25:01.224Z,17.52
2023-04-09T11:35:05.253Z,23.25
2023-04-09T11:45:09.371Z,23.38
2023-04-09T11:55:22.505Z,20.52
2023-04-09T12:05:27.680Z,21.13
2023-04-09T12:15:33.850Z,18.65
2023-04-09T12:25:37.258Z,21.13
2023-04-09T12:35:40.806Z,22.52
2023-04-09T12:45:42.811Z,27.17
2023-04-09T12:55:46.276Z,22.60
2023-04-09T13:05:48.368Z,20.25
2023-04-09T13:15:51.671Z,18.92
2023-04-09T13:25:53.644Z,18.10
2023-04-09T13:35:57.012Z,14.30
2023-04-09T13:46:20.320Z,17.38
2023-04-09T13:56:23.726Z,9.73
2023-04-09T14:06:25.828Z,7.60
2023-04-09T14:16:29.301Z,9.52
2023-04-09T14:26:31.255Z,12.50
2023-04-09T14:36:35.703Z,10.80
2023-04-09T14:46:37.746Z,9.70
2023-04-09T14:56:41.324Z,6.90
2023-04-09T15:06:43.239Z,8.77
2023-04-09T15:16:46.837Z,9.90
2023-04-09T15:26:48.859Z,4.28
2023-04-09T15:36:52.196Z,6.95
2023-04-09T15:46:54.168Z,6.40
2023-04-09T15:56:57.466Z,9.73
2023-04-09T16:06:59.381Z,15.20
2023-04-09T16:17:02.848Z,20.95
2023-04-09T16:27:04.974Z,17.88
2023-04-09T16:37:18.415Z,20.42
2023-04-09T16:47:29.514Z,15.57
2023-04-09T16:57:32.945Z,15.57
2023-04-09T17:07:34.948Z,10.18
2023-04-09T17:17:38.388Z,8.32
2023-04-09T17:27:40.450Z,6.22
2023-04-09T17:37:43.759Z,4.53
2023-04-09T17:47:45.812Z,4.15
2023-04-09T17:57:49.247Z,10.73
2023-04-09T18:07:51.766Z,11.65
2023-04-09T18:17:56.600Z,15.35
2023-04-09T18:27:58.712Z,22.10
2023-04-09T18:38:02.025Z,23.13
2023-04-09T18:48:12.802Z,15.80
2023-04-09T18:58:16.138Z,23.60
2023-04-09T19:08:18.097Z,18.33
2023-04-09T19:18:21.409Z,12.93
2023-04-09T19:28:34.643Z,25.08
2023-04-09T19:38:38.052Z,22.85
2023-04-09T19:48:40.430Z,31.60
2023-04-09T19:58:44.169Z,36.85
2023-04-09T20:08:46.165Z,11.75
2023-04-09T20:18:49.563Z,9.82
2023-04-09T20:28:51.692Z,8.20
2023-04-09T20:38:55.457Z,11.80
2023-04-09T20:48:57.659Z,12.10
2023-04-09T20:59:00.998Z,15.52
2023-04-09T21:09:03.036Z,16.52
2023-04-09T21:19:06.344Z,14.65
2023-04-09T21:29:08.321Z,13.80
2023-04-09T21:39:11.726Z,12.43
2023-04-09T21:49:13.710Z,14.60
2023-04-09T21:59:16.996Z,13.32
2023-04-09T22:09:18.933Z,15.30
2023-04-09T22:19:22.227Z,15.45
2023-04-09T22:29:24.414Z,15.80
2023-04-09T22:39:27.837Z,16.30
2023-04-09T22:49:29.749Z,16.85
2023-04-09T22:59:39.936Z,24.67
2023-04-09T23:09:42.878Z,14.90
2023-04-09T23:19:46.196Z,15.40
2023-04-09T23:29:48.110Z,15.80
2023-04-09T23:39:51.406Z,19.50
2023-04-09T23:49:53.307Z,21.92
2023-04-09T23:59:56.614Z,17.15
